Nearby METAR Reports

 

EGNT - Newcastle, United Kingdom
Distance from station: NNE 1mi, 2km
Updated: 24/04/2018 01:50
Clear
Clear
 Wind from W
Wind: W 16 mph , 26 km/h
Temperature: 9°C
Wind Chill: 6°C
Dew Point: 4°C
Humidity: 71%
Barometer: 1006 hPa
Summary: Clear
Visibility: greater than 7 miles , 10 km
2018/04/24 00:50 EGNT 240050Z 27014KT CAVOK 09/04 Q1006
EGQM - Boulmer, United Kingdom
Distance from station: N 29mi, 47km
Updated: 24/04/2018 00:50
Clear
Clear
 Wind from SSW
Wind: SSW 7 mph , 11 km/h
Temperature: 8°C
Wind Chill: 6°C
Dew Point: 3°C
Humidity: 71%
Barometer: 1006 hPa
Clouds: Clear
Visibility: 6 miles , 10 km
2018/04/23 23:50 EGQM 232350Z AUTO 21006KT 9999 NCD 08/03 Q1006
 
EGOM - Spadeadam, United Kingdom
Distance from station: W 34mi, 54km
Updated: 24/04/2018 00:50
Mostly cloudy
Mostly cloudy
 Wind from WSW
Wind: WSW 20 mph , 31 km/h
Temperature: 6°C
Wind Chill: 1°C
Dew Point: 5°C
Humidity: 93%
Barometer: 1006 hPa
Clouds: Mostly cloudy
Visibility: 6 miles , 10 km
Cloud details: Few Clouds 671 m
Mostly cloudy 1402 m
2018/04/23 23:50 EGOM 232350Z AUTO 25017KT 9999 FEW022/// BKN046/// 06/05 Q1006
EGNV - Tees-Side, United Kingdom
Distance from station: SSE 35mi, 57km
Updated: 23/04/2018 21:50
NOT Current
Partly cloudy
Partly cloudy
 Wind from WSW
Wind: WSW 18 mph , 30 km/h
Temperature: 12°C
Dew Point: 8°C
Humidity: 77%
Barometer: 1007 hPa
Clouds: Partly cloudy
Visibility: 6 miles , 10 km
Cloud details: Few Clouds 305 m
Partly cloudy 671 m
2018/04/23 20:50 EGNV 232050Z 24016KT 9999 FEW010 SCT022 12/08 Q1007
 
EGNC - Carlisle, United Kingdom
Distance from station: W 45mi, 72km
Updated: 23/04/2018 17:50
NOT Current
Light rain, Mostly cloudy
Light rain, Mostly cloudy
 Wind from SW
Wind: SW 6 mph , 9 km/h
Temperature: 9°C
Wind Chill: 7°C
Dew Point: 9°C
Humidity: 100%
Barometer: 1007 hPa
Summary: Light rain
Clouds: Mostly cloudy
Visibility: 6 miles , 9 km
Cloud details: Few Clouds 457 m
Mostly cloudy 610 m
2018/04/23 16:50 EGNC 231650Z 22005KT 190V250 9000 -RA FEW015 BKN020 09/09 Q1007
EGXE - Leeming Raf, United Kingdom
Distance from station: S 50mi, 81km
Updated: 24/04/2018 00:50
Partly cloudy
Partly cloudy
 Wind from W
Wind: W 18 mph , 30 km/h, Gust: 30 mph , 48 km/h
Temperature: 10°C
Wind Chill: 7°C
Dew Point: 4°C
Humidity: 67%
Barometer: 1009 hPa
Clouds: Partly cloudy
Visibility: 6 miles , 10 km
Cloud details: Partly cloudy 6401 m
2018/04/23 23:50 EGXE 232350Z AUTO 26016G26KT 9999 SCT210/// 10/04 Q1009
 
EGXZ - Topcliffe Raf, United Kingdom
Distance from station: SSE 57mi, 91km
Updated: 24/04/2018 00:50
Clear
Clear
 Wind from W
Wind: W 20 mph , 31 km/h, Gust: 36 mph , 57 km/h
Temperature: 11°C
Dew Point: 5°C
Humidity: 67%
Barometer: 1009 hPa
Clouds: Clear
Visibility: 6 miles , 10 km
2018/04/23 23:50 EGXZ 232350Z AUTO 28017G31KT 9999 NCD 11/05 Q1009
EGXU - Linton-On-Ouse R, United Kingdom
Distance from station: SSE 68mi, 110km
Updated: 24/04/2018 00:50
Clear
Clear
 Wind from WNW
Wind: WNW 13 mph , 20 km/h, Gust: 28 mph , 44 km/h
Temperature: 10°C
Wind Chill: 7°C
Dew Point: 6°C
Humidity: 76%
Barometer: 1009 hPa
Clouds: Clear
Visibility: 6 miles , 10 km
2018/04/23 23:50 EGXU 232350Z AUTO 30011G24KT 9999 // NCD 10/06 Q1009
 
EGNM - Leeds And Bradfo, United Kingdom
Distance from station: S 78mi, 126km
Updated: 24/04/2018 01:50
Clear
Clear
 Wind from W
Wind: W 9 mph , 15 km/h
Temperature: 8°C
Wind Chill: 5°C
Dew Point: 5°C
Humidity: 82%
Barometer: 1009 hPa
Summary: Clear
Visibility: greater than 7 miles , 10 km
2018/04/24 00:50 EGNM 240050Z 26008KT 190V300 CAVOK 08/05 Q1009
EGPH - Edinburgh Airpor, United Kingdom
Distance from station: NW 92mi, 148km
Updated: 24/04/2018 01:50
Light rain, Overcast
Light rain, Overcast
 Wind from WSW
Wind: WSW 15 mph , 24 km/h
Temperature: 8°C
Wind Chill: 4°C
Dew Point: 6°C
Humidity: 87%
Barometer: 1005 hPa
Summary: Light rain
Clouds: Overcast
Visibility: 6 miles , 10 km
Cloud details: Mostly cloudy 427 m
Overcast 762 m
2018/04/24 00:50 EGPH 240050Z 25013KT 9999 -RA BKN014 OVC025 08/06 Q1005
 
EGXV - Leconfield (aut), United Kingdom
Distance from station: SE 93mi, 150km
Updated: 24/04/2018 00:50
Mostly cloudy
Mostly cloudy
 Wind from W
Wind: W 14 mph , 22 km/h
Temperature: 12°C
Dew Point: 7°C
Humidity: 72%
Barometer: 1009 hPa
Clouds: Mostly cloudy
Visibility: 6 miles , 10 km
Cloud details: Mostly cloudy 1219 m
2018/04/23 23:50 EGXV 232350Z AUTO 26012KT 9999 BKN040/// 12/07 Q1009
EGNO - Wharton, United Kingdom
Distance from station: SSW 99mi, 159km
Updated: 23/04/2018 19:50
NOT Current
Mostly cloudy
Mostly cloudy
 Wind from WSW
Wind: WSW 13 mph , 20 km/h
Temperature: 11°C
Dew Point: 9°C
Humidity: 88%
Barometer: 1010 hPa
Clouds: Mostly cloudy
Visibility: 6 miles , 10 km
Cloud details: Mostly cloudy 488 m
2018/04/23 18:50 EGNO 231850Z 24011KT 9999 BKN016 11/09 Q1010
 
EGNH - Blackpool Airpor, United Kingdom
Distance from station: SSW 100mi, 161km
Updated: 23/04/2018 21:50
NOT Current
Mostly cloudy
Mostly cloudy
 Wind from WSW
Wind: WSW 25 mph , 41 km/h
Temperature: 10°C
Wind Chill: 6°C
Dew Point: 10°C
Humidity: 100%
Barometer: 1011 hPa
Clouds: Mostly cloudy
Visibility: 4 miles , 6 km
Cloud details: Mostly cloudy 61 m
2018/04/23 20:50 EGNH 232050Z 24022KT 6000 BKN002 10/10 Q1011